Time;durP1;ratioP1;P1;durP2;ratioP2;P2;SDS_P1;SDS_P2;PMS_P1;PMS_P2;Temp;Humidity;BMP_temperature;BMP_pressure;BME280_temperature;BME280_humidity;BME280_pressure;Samples;Min_cycle;Max_cycle;Signal;HPM_P1;HPM_P2
2021/04/20 00:01:39;;;;;;;12.47;8.73;;;;;;;10.73;67.22;100449.97;1703540;83;21161;-64
2021/04/20 00:04:12;;;;;;;13.62;8.55;;;;;;;10.72;67.27;100453.53;1719961;83;21807;-63
2021/04/20 00:06:46;;;;;;;10.75;8.25;;;;;;;10.69;67.28;100461.67;1701683;82;21743;-63
2021/04/20 00:09:19;;;;;;;14.50;8.18;;;;;;;10.66;67.29;100465.02;1709277;84;21205;-61
2021/04/20 00:11:53;;;;;;;13.80;8.10;;;;;;;10.63;67.31;100465.28;1721651;80;21331;-61
2021/04/20 00:14:26;;;;;;;13.55;8.60;;;;;;;10.60;67.37;100465.56;1712598;82;21805;-62
2021/04/20 00:16:59;;;;;;;18.00;9.17;;;;;;;10.57;67.39;100460.11;1709176;82;21168;-62
2021/04/20 00:19:32;;;;;;;15.43;10.13;;;;;;;10.55;67.45;100454.17;1728592;82;21176;-61
2021/04/20 00:22:05;;;;;;;16.53;9.93;;;;;;;10.52;67.49;100442.66;1712034;81;21299;-63
2021/04/20 00:24:38;;;;;;;21.27;11.08;;;;;;;10.48;67.59;100431.27;1732635;80;21319;-61
2021/04/20 00:27:12;;;;;;;15.18;9.50;;;;;;;10.44;67.68;100431.16;1724409;83;21903;-62
2021/04/20 00:29:44;;;;;;;12.60;9.00;;;;;;;10.40;67.82;100428.47;1724756;82;21334;-62
2021/04/20 00:32:18;;;;;;;12.13;8.73;;;;;;;10.35;68.06;100427.55;1734485;81;21153;-63
2021/04/20 00:34:50;;;;;;;14.53;8.67;;;;;;;10.35;68.23;100429.33;1747455;82;21360;-62
2021/04/20 00:37:23;;;;;;;12.58;9.00;;;;;;;10.35;68.48;100413.16;1723383;82;21375;-62
2021/04/20 00:39:57;;;;;;;15.05;9.00;;;;;;;10.37;68.62;100409.09;1727260;82;21288;-63
2021/04/20 00:42:30;;;;;;;12.55;8.95;;;;;;;10.37;68.67;100414.33;1735078;82;21874;-62
2021/04/20 00:45:05;;;;;;;12.75;9.13;;;;;;;10.37;68.78;100412.55;1706733;84;21826;-63
2021/04/20 00:47:38;;;;;;;13.50;9.28;;;;;;;10.38;68.83;100426.47;1673534;83;21351;-63
2021/04/20 00:50:13;;;;;;;12.07;9.87;;;;;;;10.39;68.89;100425.52;1713421;84;21878;-63
2021/04/20 00:52:46;;;;;;;14.23;9.90;;;;;;;10.42;68.89;100414.77;1706221;84;21272;-63
2021/04/20 00:55:19;;;;;;;13.32;9.68;;;;;;;10.41;68.96;100415.23;1704083;83;21305;-64
2021/04/20 00:57:53;;;;;;;12.03;9.93;;;;;;;10.43;68.99;100419.05;1660235;86;21288;-65
2021/04/20 01:00:28;;;;;;;19.20;11.00;;;;;;;10.44;69.02;100429.85;1671953;85;21214;-64
2021/04/20 01:03:02;;;;;;;17.02;10.85;;;;;;;10.44;68.94;100442.94;1678077;85;21257;-64
2021/04/20 01:05:37;;;;;;;17.50;11.40;;;;;;;10.42;68.77;100446.17;1655758;85;21306;-63
2021/04/20 01:08:12;;;;;;;19.15;11.83;;;;;;;10.38;68.75;100449.55;1722051;82;21220;-64
2021/04/20 01:10:49;;;;;;;17.48;11.33;;;;;;;10.37;68.79;100437.88;1731660;83;21339;-63
2021/04/20 01:13:28;;;;;;;20.50;10.68;;;;;;;10.35;68.79;100432.78;1722558;82;21338;-63
2021/04/20 01:16:01;;;;;;;19.30;10.55;;;;;;;10.32;68.83;100435.66;1684030;85;21305;-64
2021/04/20 01:18:38;;;;;;;21.25;11.25;;;;;;;10.29;68.85;100435.94;1709052;84;21352;-64
2021/04/20 01:21:14;;;;;;;22.73;11.20;;;;;;;10.25;68.91;100437.13;1704372;83;21294;-63
2021/04/20 01:24:11;;;;;;;20.97;11.85;;;;;;;10.20;68.91;100441.92;1706052;84;21277;-63
2021/04/20 01:26:47;;;;;;;17.85;11.57;;;;;;;10.15;69.05;100441.47;1713006;82;21351;-63
2021/04/20 01:29:21;;;;;;;16.52;11.35;;;;;;;10.08;69.21;100444.22;1722477;82;21169;-63
2021/04/20 01:31:54;;;;;;;15.45;11.40;;;;;;;10.04;69.58;100439.73;1731381;82;21710;-64
2021/04/20 01:34:27;;;;;;;18.87;11.75;;;;;;;10.01;69.81;100441.77;1707616;81;21273;-62
2021/04/20 01:37:00;;;;;;;19.15;12.40;;;;;;;10.02;70.12;100434.28;1703554;83;21189;-64
2021/04/20 01:39:34;;;;;;;16.27;11.78;;;;;;;10.02;70.29;100432.98;1727935;82;21180;-63
2021/04/20 01:42:08;;;;;;;15.95;11.28;;;;;;;10.04;70.37;100434.52;1743587;81;21287;-64
2021/04/20 01:44:41;;;;;;;19.82;12.70;;;;;;;10.05;70.46;100440.58;1732876;80;21331;-63
2021/04/20 01:47:14;;;;;;;16.20;11.60;;;;;;;10.04;70.47;100450.20;1715633;82;21184;-63
2021/04/20 01:49:48;;;;;;;15.00;11.10;;;;;;;10.04;70.52;100457.22;1730519;82;21343;-63
2021/04/20 01:52:20;;;;;;;;;;;;;;;10.02;70.55;100461.28;1716306;81;21348;-64
2021/04/20 01:54:53;;;;;;;20.85;13.80;;;;;;;10.03;70.58;100468.66;1733739;82;20262;-63
2021/04/20 01:57:27;;;;;;;18.23;11.75;;;;;;;10.02;70.67;100456.05;1730065;82;21185;-63
2021/04/20 02:00:00;;;;;;;16.45;11.33;;;;;;;10.03;70.70;100443.80;1725921;82;21326;-62
2021/04/20 02:02:35;;;;;;;15.85;11.00;;;;;;;10.03;70.70;100439.88;1715838;82;21832;-63
2021/04/20 02:05:12;;;;;;;10.68;7.70;;;;;;;10.04;70.68;100443.66;1706611;84;21330;-62
2021/04/20 02:07:45;;;;;;;17.80;11.57;;;;;;;10.05;70.67;100443.19;1709308;82;21757;-63
2021/04/20 02:10:18;;;;;;;14.90;10.87;;;;;;;10.02;70.68;100425.12;1709711;82;21270;-64
2021/04/20 02:12:51;;;;;;;15.03;11.20;;;;;;;9.99;70.75;100412.30;1718648;81;21161;-63
2021/04/20 02:15:25;;;;;;;15.48;11.28;;;;;;;9.96;70.89;100405.54;1730948;82;21920;-63
2021/04/20 02:17:58;;;;;;;12.85;10.08;;;;;;;9.93;70.93;100392.75;1717657;81;21270;-63
2021/04/20 02:20:31;;;;;;;10.60;7.75;;;;;;;9.91;70.96;100394.63;1735991;81;21225;-63
2021/04/20 02:23:04;;;;;;;13.85;11.03;;;;;;;9.89;71.00;100382.17;1734394;81;21323;-63
2021/04/20 02:25:37;;;;;;;19.98;11.73;;;;;;;9.88;71.08;100375.77;1723613;81;21292;-63
2021/04/20 02:28:11;;;;;;;19.15;11.93;;;;;;;9.86;71.10;100369.84;1720708;82;21817;-63
2021/04/20 02:30:44;;;;;;;21.12;11.55;;;;;;;9.82;71.12;100365.34;1716689;82;21233;-62
2021/04/20 02:33:17;;;;;;;17.12;10.45;;;;;;;9.81;71.17;100359.77;1707298;84;21283;-63
2021/04/20 02:35:51;;;;;;;16.17;10.80;;;;;;;9.81;71.20;100356.33;1736877;82;21293;-63
2021/04/20 02:38:24;;;;;;;17.75;10.15;;;;;;;9.81;71.19;100365.48;1739971;81;21212;-65
2021/04/20 02:41:02;;;;;;;14.50;8.98;;;;;;;9.78;71.13;100357.88;1719716;82;21340;-61
2021/04/20 02:43:35;;;;;;;14.18;8.35;;;;;;;9.79;71.11;100360.86;1716854;82;21795;-62
2021/04/20 02:46:09;;;;;;;12.97;9.20;;;;;;;9.77;71.02;100368.81;1726906;82;21158;-63
2021/04/20 02:48:42;;;;;;;17.37;10.15;;;;;;;9.72;70.93;100366.25;1728507;81;21197;-63
2021/04/20 02:51:15;;;;;;;20.13;11.07;;;;;;;9.69;70.91;100371.73;1732600;80;21260;-63
2021/04/20 02:53:48;;;;;;;14.23;10.00;;;;;;;9.66;71.15;100372.81;1728680;81;21280;-63
2021/04/20 02:56:21;;;;;;;16.25;10.68;;;;;;;9.67;71.31;100374.48;1703013;82;22148;-63
2021/04/20 02:58:54;;;;;;;15.20;9.93;;;;;;;9.69;71.42;100371.26;1696045;84;21240;-63
2021/04/20 03:01:31;;;;;;;121.02;55.12;;;;;;;9.75;71.36;100380.35;1718961;83;21823;-63
2021/04/20 03:04:04;;;;;;;237.00;102.02;;;;;;;9.77;71.28;100379.27;1717240;82;21286;-62
2021/04/20 03:06:39;;;;;;;147.78;68.75;;;;;;;9.81;71.16;100382.47;1716551;82;21220;-64
2021/04/20 03:09:12;;;;;;;66.77;34.00;;;;;;;9.84;71.10;100386.95;1684886;82;21314;-63
2021/04/20 03:11:57;;;;;;;42.88;20.82;;;;;;;9.89;71.10;100385.25;1729500;81;21315;-61
2021/04/20 03:14:30;;;;;;;24.65;14.38;;;;;;;9.90;71.05;100375.99;1727089;82;21314;-62
2021/04/20 03:17:03;;;;;;;20.72;12.78;;;;;;;9.94;71.03;100377.38;1716091;81;21869;-62
2021/04/20 03:19:36;;;;;;;20.68;11.97;;;;;;;9.99;71.03;100390.07;1732514;82;21167;-61
2021/04/20 03:22:10;;;;;;;19.60;11.77;;;;;;;10.02;70.96;100384.12;1723501;82;21295;-63
2021/04/20 03:25:09;;;;;;;16.35;11.63;;;;;;;10.07;70.94;100379.80;1711840;82;21271;-60
2021/04/20 03:27:50;;;;;;;21.73;13.15;;;;;;;10.09;70.89;100383.95;1728603;82;21342;-63
2021/04/20 03:30:32;;;;;;;20.72;12.53;;;;;;;10.13;70.81;100395.00;1716973;82;21378;-63
2021/04/20 03:33:25;;;;;;;44.23;22.80;;;;;;;10.15;70.75;100389.98;1737085;82;21346;-62
2021/04/20 03:36:10;;;;;;;32.15;17.23;;;;;;;10.21;70.75;100393.05;1746937;81;21302;-60
2021/04/20 03:39:20;;;;;;;24.50;15.32;;;;;;;10.24;70.64;100388.39;1738132;81;21274;-63
2021/04/20 03:42:03;;;;;;;57.62;30.68;;;;;;;10.28;70.57;100396.80;1723452;81;21322;-61
2021/04/20 03:44:54;;;;;;;36.40;21.95;;;;;;;10.33;70.48;100396.77;1712948;82;21322;-64
2021/04/20 03:47:43;;;;;;;32.23;19.70;;;;;;;10.38;70.31;100393.28;1718091;82;21191;-63
2021/04/20 03:50:21;;;;;;;27.95;17.27;;;;;;;10.43;70.14;100395.50;1716168;81;21845;-63
2021/04/20 03:52:59;;;;;;;80.75;36.77;;;;;;;10.47;70.04;100390.34;1727873;81;21288;-64
2021/04/20 03:55:33;;;;;;;88.78;41.05;;;;;;;10.52;69.92;100386.84;1713633;81;21345;-63
2021/04/20 03:58:06;;;;;;;79.25;37.00;;;;;;;10.58;69.79;100377.97;1726089;81;21311;-64
2021/04/20 04:00:39;;;;;;;60.75;28.42;;;;;;;10.66;69.58;100376.00;1714274;81;21184;-62
2021/04/20 04:03:14;;;;;;;29.37;14.87;;;;;;;10.73;69.42;100376.66;1731486;82;21266;-62
2021/04/20 04:05:49;;;;;;;24.85;17.02;;;;;;;10.81;69.26;100362.41;1716847;81;21283;-63
2021/04/20 04:08:22;;;;;;;22.42;15.78;;;;;;;10.87;69.09;100357.09;1724840;82;21229;-62
2021/04/20 04:10:58;;;;;;;22.80;16.47;;;;;;;10.92;69.06;100361.45;1713848;82;21702;-61
2021/04/20 04:13:33;;;;;;;23.12;14.73;;;;;;;10.97;69.00;100361.88;1711953;82;21200;-61
2021/04/20 04:16:07;;;;;;;20.70;13.85;;;;;;;11.03;68.98;100350.03;1714480;82;21283;-64
2021/04/20 04:18:46;;;;;;;22.07;15.20;;;;;;;11.07;69.03;100337.00;1727236;82;21271;-64
2021/04/20 04:21:23;;;;;;;20.43;13.30;;;;;;;11.12;69.11;100327.77;1741304;81;21181;-64
2021/04/20 04:24:00;;;;;;;14.55;10.95;;;;;;;11.16;69.56;100324.38;1741697;81;21353;-64
2021/04/20 04:26:36;;;;;;;14.07;11.55;;;;;;;11.15;70.06;100320.12;1728272;82;21160;-63
2021/04/20 04:29:10;;;;;;;15.40;11.75;;;;;;;11.12;70.42;100305.50;1732916;82;21339;-63
2021/04/20 04:31:44;;;;;;;15.75;11.83;;;;;;;11.10;70.82;100302.20;1728605;81;21355;-62
2021/04/20 04:34:18;;;;;;;15.18;11.97;;;;;;;11.15;71.20;100308.33;1705592;83;21315;-62
2021/04/20 04:36:52;;;;;;;23.70;11.73;;;;;;;11.20;71.38;100298.27;1714382;81;21365;-62
2021/04/20 04:39:25;;;;;;;14.45;9.18;;;;;;;11.28;71.60;100293.97;1706574;82;21204;-62
2021/04/20 04:41:58;;;;;;;16.80;11.22;;;;;;;11.39;71.70;100296.94;1706721;82;21779;-62
2021/04/20 04:44:31;;;;;;;21.27;11.75;;;;;;;11.49;71.68;100296.41;1705669;82;21373;-64
2021/04/20 04:47:07;;;;;;;17.80;11.68;;;;;;;11.63;71.58;100294.66;1739143;82;21814;-64
2021/04/20 04:49:40;;;;;;;22.55;12.45;;;;;;;11.76;71.53;100291.28;1717835;81;21667;-65
2021/04/20 04:52:16;;;;;;;17.98;11.12;;;;;;;11.85;71.47;100285.66;1733457;80;21231;-62
2021/04/20 04:54:49;;;;;;;13.62;10.10;;;;;;;11.89;71.43;100292.29;1699303;81;21369;-62
2021/04/20 04:57:23;;;;;;;14.53;10.40;;;;;;;11.91;71.44;100289.03;1727473;80;21354;-60
2021/04/20 05:00:01;;;;;;;14.53;9.95;;;;;;;11.94;71.61;100284.31;1693596;82;21147;-69
2021/04/20 05:02:36;;;;;;;13.90;9.93;;;;;;;11.97;71.64;100281.89;1701466;82;21350;-64
2021/04/20 05:05:14;;;;;;;13.53;10.60;;;;;;;11.99;71.67;100279.94;1660814;84;21375;-64
2021/04/20 05:07:46;;;;;;;17.77;11.20;;;;;;;11.93;71.78;100265.62;1694463;82;21330;-63
2021/04/20 05:10:19;;;;;;;17.60;10.63;;;;;;;11.87;72.02;100272.73;1666213;83;21347;-68
2021/04/20 05:12:54;;;;;;;15.70;10.72;;;;;;;11.82;72.21;100269.72;1621909;85;21536;-66
2021/04/20 05:15:27;;;;;;;14.40;10.53;;;;;;;11.82;72.38;100263.16;1669300;83;21319;-64
2021/04/20 05:18:01;;;;;;;13.38;10.05;;;;;;;11.82;72.64;100258.42;1715122;81;21326;-74
2021/04/20 05:20:34;;;;;;;17.67;10.48;;;;;;;11.84;72.84;100259.09;1705128;81;21338;-71
2021/04/20 05:23:07;;;;;;;15.35;9.55;;;;;;;11.87;72.92;100262.75;1706112;81;21337;-68
2021/04/20 05:25:40;;;;;;;14.73;9.30;;;;;;;11.89;72.97;100264.23;1706903;80;21220;-63
2021/04/20 05:28:13;;;;;;;16.60;10.63;;;;;;;11.90;73.04;100254.58;1702822;82;21732;-68
2021/04/20 05:30:46;;;;;;;14.60;10.05;;;;;;;11.94;73.00;100262.52;1676896;83;21307;-64
2021/04/20 05:33:22;;;;;;;12.88;9.73;;;;;;;11.98;72.67;100267.81;1675812;83;21811;-61
2021/04/20 05:35:56;;;;;;;17.85;9.73;;;;;;;12.00;72.43;100259.30;1683169;82;21345;-69
2021/04/20 05:38:30;;;;;;;13.30;9.88;;;;;;;12.09;72.25;100264.98;1673948;83;21680;-70
2021/04/20 05:41:07;;;;;;;15.50;9.58;;;;;;;12.18;71.67;100257.55;1694016;82;21293;-67
2021/04/20 05:43:43;;;;;;;13.90;9.48;;;;;;;12.26;71.34;100254.19;1702331;82;21518;-68
2021/04/20 05:46:17;;;;;;;13.50;9.88;;;;;;;12.33;71.00;100255.26;1665796;84;21225;-67
2021/04/20 05:48:51;;;;;;;17.50;10.03;;;;;;;12.37;70.79;100246.14;1689139;82;21366;-65
2021/04/20 05:51:26;;;;;;;15.98;9.98;;;;;;;12.39;70.55;100248.95;1668558;84;21225;-65
2021/04/20 05:54:01;;;;;;;17.55;10.15;;;;;;;12.44;70.32;100243.26;1672993;83;21319;-62
2021/04/20 05:56:34;;;;;;;17.02;10.45;;;;;;;12.49;70.23;100250.20;1677928;83;21480;-65
2021/04/20 05:59:08;;;;;;;19.98;11.25;;;;;;;12.55;70.16;100245.18;1665403;83;21288;-65
2021/04/20 06:01:45;;;;;;;14.30;10.75;;;;;;;12.67;69.95;100252.34;1653209;83;21279;-62
2021/04/20 06:04:19;;;;;;;17.52;10.50;;;;;;;12.68;69.51;100253.50;1698691;82;21199;-68
2021/04/20 06:06:51;;;;;;;18.75;11.55;;;;;;;12.68;69.50;100256.64;1671769;83;21395;-64
2021/04/20 06:09:24;;;;;;;18.82;10.93;;;;;;;12.68;69.44;100260.06;1679810;83;21324;-64
2021/04/20 06:11:57;;;;;;;21.73;10.00;;;;;;;12.69;69.33;100255.65;1669096;83;21335;-61
2021/04/20 06:14:30;;;;;;;17.93;10.27;;;;;;;12.67;69.27;100265.00;1707952;80;21313;-64
2021/04/20 06:17:03;;;;;;;16.37;10.10;;;;;;;12.69;69.38;100264.84;1728227;81;21310;-71
2021/04/20 06:19:37;;;;;;;14.78;10.13;;;;;;;12.66;69.41;100267.27;1721246;81;21318;-63
2021/04/20 06:22:16;;;;;;;16.60;9.80;;;;;;;12.57;69.47;100261.61;1705951;82;21314;-62
2021/04/20 06:24:49;;;;;;;14.70;10.43;;;;;;;12.53;69.80;100262.05;1723205;79;21322;-63
2021/04/20 06:27:21;;;;;;;15.03;10.28;;;;;;;12.56;69.93;100262.56;1714712;81;21327;-68
2021/04/20 06:29:55;;;;;;;27.00;12.55;;;;;;;12.59;69.84;100259.66;1716121;80;21346;-60
2021/04/20 06:32:31;;;;;;;15.85;10.78;;;;;;;12.60;69.78;100274.45;1718629;80;21203;-68
2021/04/20 06:35:14;;;;;;;15.25;9.78;;;;;;;12.61;69.91;100275.28;1713767;81;21287;-68
2021/04/20 06:37:50;;;;;;;17.02;10.35;;;;;;;12.64;69.94;100267.91;1686350;83;21483;-65
2021/04/20 06:40:27;;;;;;;13.60;9.78;;;;;;;12.64;69.99;100260.04;1655191;82;21261;-69
2021/04/20 06:43:02;;;;;;;19.60;10.43;;;;;;;12.64;70.04;100271.02;1721149;80;21330;-68
2021/04/20 06:46:04;;;;;;;15.43;9.58;;;;;;;12.61;70.20;100281.34;1737750;80;21319;-67
2021/04/20 06:48:56;;;;;;;16.97;10.13;;;;;;;12.62;70.32;100260.68;1741308;80;21180;-67
2021/04/20 06:51:37;;;;;;;19.27;10.10;;;;;;;12.68;70.31;100281.59;1707034;81;21216;-69
2021/04/20 06:54:29;;;;;;;19.42;11.20;;;;;;;12.71;70.32;100270.77;1729271;80;21322;-63
2021/04/20 06:57:16;;;;;;;15.28;10.13;;;;;;;12.77;70.47;100277.58;1702310;81;21327;-61
2021/04/20 07:00:12;;;;;;;15.08;9.80;;;;;;;12.80;70.41;100280.41;1705771;81;21330;-66
2021/04/20 07:03:13;;;;;;;19.32;10.60;;;;;;;12.84;70.42;100272.55;1702364;80;21168;-68
2021/04/20 07:05:52;;;;;;;19.12;10.32;;;;;;;12.88;70.44;100290.14;1701026;81;21197;-66
2021/04/20 07:08:43;;;;;;;18.23;9.38;;;;;;;12.85;70.51;100280.27;1702955;81;21308;-69
2021/04/20 07:11:23;;;;;;;13.15;8.28;;;;;;;12.84;70.66;100282.58;1714350;81;21291;-71
2021/04/20 07:14:04;;;;;;;14.35;9.13;;;;;;;12.78;70.92;100272.65;1721936;80;21334;-63
2021/04/20 07:16:46;;;;;;;18.60;10.98;;;;;;;12.75;71.08;100282.14;1742372;80;21263;-66
2021/04/20 07:19:52;;;;;;;18.02;10.00;;;;;;;12.75;71.26;100276.88;1733563;81;21223;-63
2021/04/20 07:22:55;;;;;;;16.25;9.00;;;;;;;12.71;71.38;100277.33;1721138;81;21938;-61
2021/04/20 07:25:49;;;;;;;16.30;9.13;;;;;;;12.67;71.56;100278.13;1695814;81;21198;-67
2021/04/20 07:28:58;;;;;;;16.48;8.73;;;;;;;12.68;71.61;100266.63;1729036;80;21205;-68
2021/04/20 07:31:51;;;;;;;13.65;8.40;;;;;;;12.69;71.64;100246.45;1685042;80;21199;-69
2021/04/20 07:34:53;;;;;;;14.63;9.23;;;;;;;12.76;71.76;100267.20;1720843;80;21339;-62
2021/04/20 07:38:04;;;;;;;11.60;8.15;;;;;;;12.81;71.74;100242.62;1714351;80;21374;-63
2021/04/20 07:41:23;;;;;;;15.43;8.60;;;;;;;12.87;71.72;100230.70;1728795;80;21240;-66
2021/04/20 07:44:45;;;;;;;17.90;9.80;;;;;;;12.87;71.76;100224.97;1733060;80;21220;-63
2021/04/20 07:47:35;;;;;;;12.75;9.00;;;;;;;12.89;71.99;100214.30;1728174;80;21703;-70
2021/04/20 07:50:26;;;;;;;13.00;8.90;;;;;;;12.93;72.04;100207.75;1724077;80;21319;-64
2021/04/20 07:53:27;;;;;;;19.17;9.73;;;;;;;12.98;72.23;100205.01;1711369;82;21339;-69
2021/04/20 07:56:18;;;;;;;16.35;9.68;;;;;;;13.06;72.41;100199.03;1667232;82;21323;-65
2021/04/20 07:59:01;;;;;;;14.78;9.50;;;;;;;13.14;72.21;100194.64;1676778;82;22555;-68
2021/04/20 08:01:58;;;;;;;19.07;10.05;;;;;;;13.17;72.15;100187.77;1701665;79;21719;-70
2021/04/20 08:04:56;;;;;;;15.60;8.70;;;;;;;13.20;72.32;100190.09;1708246;81;21242;-68
2021/04/20 08:08:00;;;;;;;15.58;9.90;;;;;;;13.19;72.09;100195.01;1705612;81;21342;-69
2021/04/20 08:10:50;;;;;;;14.38;9.35;;;;;;;13.14;72.39;100194.64;1732858;80;21264;-68
2021/04/20 08:14:00;;;;;;;11.00;8.73;;;;;;;13.07;72.91;100208.55;1723096;80;21377;-64
2021/04/20 08:17:37;;;;;;;16.77;9.35;;;;;;;13.03;73.18;100176.95;1674738;81;21192;-70
2021/04/20 08:20:22;;;;;;;12.73;7.83;;;;;;;13.00;73.52;100168.89;1730702;80;21255;-68
2021/04/20 08:22:58;;;;;;;12.65;8.28;;;;;;;12.96;73.57;100136.50;1732349;80;21606;-61
2021/04/20 08:25:36;;;;;;;10.82;7.62;;;;;;;12.94;73.63;100113.50;1723926;80;21490;-68
2021/04/20 08:28:33;;;;;;;10.80;7.37;;;;;;;12.94;73.67;100118.76;1703149;82;21351;-65
2021/04/20 08:31:11;;;;;;;11.25;7.55;;;;;;;12.92;73.64;100120.20;1728808;80;21290;-65
2021/04/20 08:33:46;;;;;;;13.88;7.87;;;;;;;12.90;73.83;100139.77;1737534;80;21283;-67
2021/04/20 08:36:35;;;;;;;13.38;8.15;;;;;;;12.89;74.03;100134.16;1724682;80;21907;-67
2021/04/20 08:39:19;;;;;;;12.98;7.85;;;;;;;12.90;74.09;100125.31;1703611;81;21315;-63
2021/04/20 08:42:22;;;;;;;11.90;7.92;;;;;;;12.87;73.98;100117.25;1699223;82;21353;-61
2021/04/20 08:45:32;;;;;;;9.85;7.25;;;;;;;12.85;74.17;100096.36;1717820;80;21406;-64
2021/04/20 08:48:35;;;;;;;10.88;7.67;;;;;;;12.87;74.29;100109.84;1683811;82;21239;-62
2021/04/20 08:51:41;;;;;;;11.85;7.47;;;;;;;12.85;74.24;100116.06;1673478;83;22425;-59
2021/04/20 08:54:23;;;;;;;13.90;8.23;;;;;;;12.84;74.41;100105.72;1679577;83;21209;-71
2021/04/20 08:57:37;;;;;;;13.40;8.13;;;;;;;12.87;74.67;100105.42;1679298;83;21720;-66
2021/04/20 09:00:45;;;;;;;12.58;7.10;;;;;;;12.92;74.84;100104.95;1637279;86;21452;-63
2021/04/20 09:03:24;;;;;;;12.30;6.42;;;;;;;12.97;74.55;100089.55;1593815;88;21392;-61
2021/04/20 09:06:06;;;;;;;14.23;8.18;;;;;;;13.04;74.12;100077.44;1655177;82;21431;-62
2021/04/20 09:08:41;;;;;;;12.05;7.50;;;;;;;13.11;73.77;100072.72;1705467;82;21850;-62
2021/04/20 09:11:26;;;;;;;12.98;6.97;;;;;;;13.12;73.68;100071.76;1717980;81;21311;-64
2021/04/20 09:14:12;;;;;;;14.40;7.45;;;;;;;13.11;73.71;100077.98;1720636;80;22208;-61
2021/04/20 09:16:57;;;;;;;10.38;6.80;;;;;;;13.10;74.18;100081.61;1715645;81;21274;-62
2021/04/20 09:19:56;;;;;;;10.23;7.53;;;;;;;13.16;74.36;100072.28;1732959;81;21355;-64
2021/04/20 09:23:07;;;;;;;13.10;7.60;;;;;;;13.14;74.42;100062.39;1710298;80;21292;-61
2021/04/20 09:26:15;;;;;;;11.12;6.62;;;;;;;13.11;74.99;100059.58;1716268;80;21203;-62
2021/04/20 09:29:23;;;;;;;11.05;6.30;;;;;;;13.10;75.38;100039.55;1718998;81;21247;-63
2021/04/20 09:32:00;;;;;;;9.08;6.17;;;;;;;13.14;75.67;100030.84;1700260;82;22520;-62
2021/04/20 09:34:39;;;;;;;8.40;5.87;;;;;;;13.13;75.39;100012.13;1722716;81;21220;-62
2021/04/20 09:37:13;;;;;;;12.82;6.05;;;;;;;13.10;75.90;100011.95;1704722;80;21581;-61
2021/04/20 09:39:47;;;;;;;12.68;5.37;;;;;;;13.06;76.17;100008.01;1750021;81;21176;-61
2021/04/20 09:42:20;;;;;;;10.30;6.17;;;;;;;13.03;76.84;100023.22;1741495;80;21330;-61
2021/04/20 09:45:24;;;;;;;9.93;6.47;;;;;;;13.03;77.06;100035.05;1721906;81;21708;-68
2021/04/20 09:48:17;;;;;;;6.17;4.27;;;;;;;13.05;77.09;100029.14;1700058;81;21306;-63
2021/04/20 09:51:13;;;;;;;14.47;6.50;;;;;;;13.03;77.15;100013.54;1741168;80;21315;-60
2021/04/20 09:54:14;;;;;;;8.93;5.60;;;;;;;13.03;77.60;100029.79;1723824;80;21332;-67
2021/04/20 09:56:56;;;;;;;8.98;5.62;;;;;;;13.03;77.99;100006.97;1697419;82;21332;-64
2021/04/20 09:59:58;;;;;;;8.30;5.60;;;;;;;13.06;78.59;99998.81;1718844;81;21304;-63
2021/04/20 10:03:00;;;;;;;7.67;5.72;;;;;;;13.08;78.18;100002.58;1706567;81;21282;-61
2021/04/20 10:06:01;;;;;;;8.80;6.60;;;;;;;13.03;77.94;99991.69;1700032;81;21306;-66
2021/04/20 10:09:09;;;;;;;9.83;6.10;;;;;;;12.97;78.22;99978.67;1717049;81;21257;-66
2021/04/20 10:12:20;;;;;;;12.85;6.67;;;;;;;12.92;78.33;99986.72;1728710;81;21279;-63
2021/04/20 10:15:11;;;;;;;9.38;5.85;;;;;;;12.89;78.75;99970.78;1729947;80;21285;-67
2021/04/20 10:18:03;;;;;;;8.98;6.17;;;;;;;12.88;79.05;99970.91;1736314;81;21702;-67
2021/04/20 10:20:53;;;;;;;8.85;6.35;;;;;;;12.83;79.18;99983.21;1713648;79;21552;-63
2021/04/20 10:23:39;;;;;;;12.25;6.87;;;;;;;12.77;79.51;100011.44;1711648;80;22507;-67
2021/04/20 10:26:30;;;;;;;8.13;6.35;;;;;;;12.73;79.96;100014.84;1721782;79;21228;-71
2021/04/20 10:29:31;;;;;;;11.78;6.30;;;;;;;12.71;80.01;100002.37;1722548;80;21224;-74
2021/04/20 10:32:30;;;;;;;10.63;7.05;;;;;;;12.68;80.10;100003.18;1720116;80;21319;-67
2021/04/20 10:35:05;;;;;;;12.37;7.03;;;;;;;12.65;80.31;100010.88;1747930;80;21331;-68
2021/04/20 10:37:55;;;;;;;8.08;6.17;;;;;;;12.67;80.49;100003.66;1719333;81;21296;-67
2021/04/20 10:40:36;;;;;;;7.90;5.65;;;;;;;12.68;80.78;100000.04;1716362;80;21581;-63
2021/04/20 10:43:19;;;;;;;8.93;5.92;;;;;;;12.68;80.65;100004.50;1722731;80;21461;-70
2021/04/20 10:45:54;;;;;;;12.75;6.03;;;;;;;12.67;80.51;99993.16;1701246;82;21274;-65
2021/04/20 10:48:28;;;;;;;8.40;5.47;;;;;;;12.65;80.52;100010.05;1661972;83;21788;-63
2021/04/20 10:51:01;;;;;;;10.68;5.62;;;;;;;12.63;80.66;99992.31;1720133;81;21192;-67
2021/04/20 10:53:35;;;;;;;8.28;5.90;;;;;;;12.63;80.82;99985.23;1722833;80;22492;-68
2021/04/20 10:56:14;;;;;;;7.97;5.30;;;;;;;12.64;81.03;99975.08;1713539;80;21330;-62
2021/04/20 10:58:49;;;;;;;7.87;6.00;;;;;;;12.64;81.13;99971.14;1707868;80;21960;-70
2021/04/20 11:01:32;;;;;;;8.08;5.22;;;;;;;12.67;81.40;99960.33;1712379;80;21814;-66
2021/04/20 11:04:06;;;;;;;8.73;5.50;;;;;;;12.74;81.51;99956.58;1723046;80;21751;-61
2021/04/20 11:07:18;;;;;;;7.53;4.62;;;;;;;12.79;81.31;99945.11;1724868;81;21317;-71
2021/04/20 11:10:00;;;;;;;7.50;4.78;;;;;;;12.79;81.37;99941.17;1718275;81;21506;-59
2021/04/20 11:12:33;;;;;;;6.17;4.17;;;;;;;12.79;81.28;99931.98;1701325;82;21209;-62
2021/04/20 11:15:08;;;;;;;4.80;3.87;;;;;;;12.78;81.20;99927.21;1712016;81;21951;-65
2021/04/20 11:17:52;;;;;;;6.08;3.67;;;;;;;12.77;81.25;99913.77;1718685;80;21855;-65
2021/04/20 11:20:30;;;;;;;;;;;;;;;12.75;81.38;99900.45;1699789;82;21294;-61
2021/04/20 11:23:16;;;;;;;4.62;2.83;;;;;;;12.73;81.12;99881.38;1665683;83;20290;-61
2021/04/20 11:26:13;;;;;;;4.50;2.47;;;;;;;12.67;81.19;99876.28;1715723;80;21224;-67
2021/04/20 11:28:53;;;;;;;3.00;2.12;;;;;;;12.61;81.05;99883.98;1688038;82;21334;-67
2021/04/20 11:31:38;;;;;;;3.08;1.77;;;;;;;12.55;81.00;99878.86;1701896;81;21208;-70
2021/04/20 11:34:21;;;;;;;2.90;1.95;;;;;;;12.48;80.97;99873.91;1727268;80;21183;-61
2021/04/20 11:37:02;;;;;;;5.50;2.90;;;;;;;12.42;81.13;99864.02;1710486;81;21420;-63
2021/04/20 11:39:51;;;;;;;2.60;2.00;;;;;;;12.38;81.37;99864.01;1713197;80;21330;-60
2021/04/20 11:42:29;;;;;;;3.33;1.62;;;;;;;12.38;81.56;99848.26;1715009;81;21925;-60
2021/04/20 11:45:06;;;;;;;3.83;2.10;;;;;;;12.33;80.93;99833.95;1726089;81;21346;-67
2021/04/20 11:47:56;;;;;;;2.92;1.87;;;;;;;12.23;81.12;99834.58;1735786;79;21347;-61
2021/04/20 11:50:32;;;;;;;5.37;4.47;;;;;;;12.15;81.18;99840.13;1711313;81;21316;-62
2021/04/20 11:53:08;;;;;;;3.17;1.62;;;;;;;12.08;81.34;99829.89;1715691;81;21306;-67
2021/04/20 11:55:46;;;;;;;1.70;1.12;;;;;;;12.02;81.48;99831.84;1695876;80;21644;-64
2021/04/20 11:58:31;;;;;;;3.62;2.33;;;;;;;11.98;81.82;99823.13;1685065;82;21387;-66
2021/04/20 12:01:21;;;;;;;3.27;2.08;;;;;;;11.96;82.04;99829.84;1684028;82;21324;-65
2021/04/20 12:04:00;;;;;;;2.72;2.02;;;;;;;11.96;82.24;99822.46;1686306;80;21364;-61
2021/04/20 12:06:49;;;;;;;1.95;1.55;;;;;;;11.98;82.33;99808.70;1668359;83;21331;-65
2021/04/20 12:09:25;;;;;;;2.42;1.07;;;;;;;11.97;82.43;99813.59;1668021;83;21747;-60
2021/04/20 12:11:58;;;;;;;1.55;1.00;;;;;;;11.93;82.46;99812.27;1639324;84;21284;-59
2021/04/20 12:14:32;;;;;;;1.02;0.70;;;;;;;11.90;82.58;99802.91;1674676;83;21402;-59
2021/04/20 12:17:08;;;;;;;3.60;1.15;;;;;;;11.92;82.91;99787.83;1651441;83;21743;-60
2021/04/20 12:19:45;;;;;;;1.98;0.90;;;;;;;11.89;83.17;99776.33;1701131;80;21330;-61
2021/04/20 12:22:23;;;;;;;3.08;1.05;;;;;;;11.88;83.55;99781.27;1689051;82;21220;-62